Time;durP1;ratioP1;P1;durP2;ratioP2;P2;SDS_P1;SDS_P2;PMS_P1;PMS_P2;Temp;Humidity;BMP_temperature;BMP_pressure;BME280_temperature;BME280_humidity;BME280_pressure;Samples;Min_cycle;Max_cycle;Signal;HPM_P1;HPM_P2
2023/04/06 00:03:06;;;;;;;11.00;8.30;;;;;;;6.59;42.74;100448.81;10433977;28;20159;-66
2023/04/06 00:08:07;;;;;;;9.30;8.40;;;;;;;6.54;42.88;100437.66;10435458;28;20107;-68
2023/04/06 00:13:09;;;;;;;9.05;8.13;;;;;;;6.55;42.50;100439.38;10434998;28;20054;-67
2023/04/06 00:18:11;;;;;;;7.85;7.13;;;;;;;6.52;42.31;100455.41;10439421;28;20044;-69
2023/04/06 00:23:13;;;;;;;8.68;7.35;;;;;;;6.46;42.18;100450.50;10439560;28;20550;-66
2023/04/06 00:28:14;;;;;;;11.02;7.90;;;;;;;6.39;42.65;100435.94;10432520;28;20066;-68
2023/04/06 00:33:16;;;;;;;8.70;7.63;;;;;;;6.51;42.31;100437.84;10437117;28;20132;-67
2023/04/06 00:38:17;;;;;;;8.27;7.47;;;;;;;6.48;42.43;100430.09;10434243;28;20049;-67
2023/04/06 00:43:19;;;;;;;10.25;8.80;;;;;;;6.36;42.22;100424.63;10433379;28;20059;-71
2023/04/06 00:48:21;;;;;;;7.72;6.95;;;;;;;6.24;42.55;100425.31;10440360;28;20101;-70
2023/04/06 00:53:22;;;;;;;8.15;7.32;;;;;;;6.21;42.60;100428.16;10442449;28;20555;-66
2023/04/06 00:58:24;;;;;;;9.13;8.00;;;;;;;6.09;43.06;100416.50;10454870;28;20117;-69
2023/04/06 01:03:26;;;;;;;7.90;7.15;;;;;;;6.01;43.19;100403.75;10455161;28;20131;-69
2023/04/06 01:08:27;;;;;;;9.95;8.35;;;;;;;5.98;43.79;100408.38;10450341;28;20068;-68
2023/04/06 01:13:29;;;;;;;8.70;7.90;;;;;;;5.96;44.44;100405.81;10449851;28;20113;-71
2023/04/06 01:18:30;;;;;;;10.15;9.15;;;;;;;5.91;44.43;100404.38;10440580;28;20049;-66
2023/04/06 01:23:32;;;;;;;8.40;7.32;;;;;;;5.89;44.72;100404.47;10442166;28;20115;-68
2023/04/06 01:28:33;;;;;;;9.32;7.65;;;;;;;5.78;45.20;100402.44;10444407;28;20056;-70
2023/04/06 01:33:35;;;;;;;8.40;7.60;;;;;;;5.75;45.51;100401.75;10439360;28;20144;-69
2023/04/06 01:38:37;;;;;;;8.40;7.53;;;;;;;5.64;45.81;100390.03;10434102;28;20044;-72
2023/04/06 01:43:38;;;;;;;7.80;7.10;;;;;;;5.60;45.54;100380.59;10442155;28;20060;-70
2023/04/06 01:48:39;;;;;;;7.35;6.57;;;;;;;5.52;46.13;100387.25;10451126;28;20488;-71
2023/04/06 01:53:41;;;;;;;8.07;7.28;;;;;;;5.46;45.91;100376.09;10447367;28;20101;-67
2023/04/06 01:58:42;;;;;;;8.00;6.82;;;;;;;5.52;45.92;100390.72;10444096;28;20471;-68
2023/04/06 02:03:44;;;;;;;16.10;8.43;;;;;;;5.42;45.93;100392.19;10442966;28;20542;-68
2023/04/06 02:08:45;;;;;;;7.82;7.03;;;;;;;5.35;46.23;100389.06;10441200;28;20057;-67
2023/04/06 02:13:47;;;;;;;8.88;7.45;;;;;;;5.35;46.51;100382.94;10442693;28;20047;-68
2023/04/06 02:18:50;;;;;;;7.80;7.03;;;;;;;5.30;46.76;100377.91;10458944;28;20097;-67
2023/04/06 02:23:52;;;;;;;8.27;7.40;;;;;;;5.25;47.49;100374.66;10439198;28;20076;-71
2023/04/06 02:28:54;;;;;;;10.48;9.10;;;;;;;5.34;47.48;100381.22;10442844;28;20154;-70
2023/04/06 02:33:55;;;;;;;8.07;7.28;;;;;;;5.13;48.09;100376.22;10441935;28;20056;-69
2023/04/06 02:38:56;;;;;;;8.10;7.30;;;;;;;5.14;48.47;100380.56;10433554;28;20351;-65
2023/04/06 02:43:58;;;;;;;10.45;7.80;;;;;;;5.04;48.73;100374.09;10440049;28;20064;-69
2023/04/06 02:49:00;;;;;;;7.10;6.40;;;;;;;5.06;48.77;100377.47;10441566;28;20045;-67
2023/04/06 02:54:01;;;;;;;8.27;7.35;;;;;;;5.03;49.12;100380.28;10460573;28;20107;-68
2023/04/06 02:59:03;;;;;;;9.82;8.10;;;;;;;4.98;49.62;100380.53;10469727;28;20044;-70
2023/04/06 03:04:04;;;;;;;8.93;7.50;;;;;;;4.93;49.75;100369.41;10469668;28;20040;-71
2023/04/06 03:09:06;;;;;;;8.45;7.20;;;;;;;4.85;50.28;100367.19;10465557;28;20075;-71
2023/04/06 03:14:08;;;;;;;8.73;7.00;;;;;;;4.86;50.08;100374.16;10459364;28;20102;-69
2023/04/06 03:19:10;;;;;;;8.45;7.65;;;;;;;4.76;50.49;100370.34;10439247;28;20133;-67
2023/04/06 03:24:13;;;;;;;8.43;7.60;;;;;;;4.69;50.56;100361.91;10439387;28;20548;-67
2023/04/06 03:29:15;;;;;;;8.80;8.00;;;;;;;4.73;50.92;100375.78;10437466;28;20689;-68
2023/04/06 03:34:20;;;;;;;8.63;7.85;;;;;;;4.72;50.74;100380.19;10438423;28;20602;-68
2023/04/06 03:39:21;;;;;;;;;;;;;;;4.68;51.08;100378.63;10439654;28;20196;-70
2023/04/06 03:44:22;;;;;;;8.65;7.32;;;;;;;4.51;51.33;100369.00;10438090;28;19970;-70
2023/04/06 03:49:24;;;;;;;9.23;8.27;;;;;;;4.55;51.39;100378.47;10440226;28;20388;-67
2023/04/06 03:54:25;;;;;;;7.57;6.88;;;;;;;4.55;51.43;100386.38;10434341;28;20126;-68
2023/04/06 03:59:27;;;;;;;7.82;7.03;;;;;;;4.49;51.54;100378.78;10435661;28;20048;-69
2023/04/06 04:04:29;;;;;;;8.98;7.78;;;;;;;4.43;51.78;100390.50;10434918;28;20037;-70
2023/04/06 04:09:30;;;;;;;7.85;7.00;;;;;;;4.37;52.01;100379.44;10450166;28;20396;-69
2023/04/06 04:14:32;;;;;;;8.52;7.53;;;;;;;4.35;51.96;100386.56;10432286;28;20052;-67
2023/04/06 04:19:33;;;;;;;8.38;6.97;;;;;;;4.39;51.96;100396.88;10428998;28;20076;-69
2023/04/06 04:24:35;;;;;;;7.95;7.18;;;;;;;4.30;52.31;100400.00;10426203;28;20544;-64
2023/04/06 04:29:36;;;;;;;7.53;6.82;;;;;;;4.28;52.96;100401.88;10426965;28;20053;-69
2023/04/06 04:34:40;;;;;;;8.48;7.68;;;;;;;4.28;52.66;100411.53;10430678;28;20049;-70
2023/04/06 04:39:41;;;;;;;8.07;7.38;;;;;;;4.25;52.98;100407.28;10445651;28;20221;-67
2023/04/06 04:44:43;;;;;;;8.60;7.65;;;;;;;4.22;53.38;100405.66;10432469;28;20219;-70
2023/04/06 04:49:44;;;;;;;9.43;8.20;;;;;;;4.23;53.39;100410.00;10430938;28;20061;-67
2023/04/06 04:54:46;;;;;;;8.95;8.05;;;;;;;4.22;53.15;100407.47;10430772;28;20492;-67
2023/04/06 04:59:50;;;;;;;9.18;7.82;;;;;;;4.20;53.20;100404.91;10432148;28;20040;-67
2023/04/06 05:04:51;;;;;;;10.25;9.25;;;;;;;4.14;53.60;100399.91;10428475;28;20048;-65
2023/04/06 05:09:52;;;;;;;14.63;10.57;;;;;;;4.13;53.81;100403.50;10429780;28;20367;-67
2023/04/06 05:14:54;;;;;;;9.90;8.63;;;;;;;4.17;54.03;100414.72;10428359;28;20746;-67
2023/04/06 05:19:56;;;;;;;16.85;9.30;;;;;;;4.17;53.75;100401.56;10430966;28;20110;-71
2023/04/06 05:24:57;;;;;;;8.82;8.02;;;;;;;4.21;54.27;100425.03;10430125;28;20040;-69
2023/04/06 05:29:59;;;;;;;10.32;7.80;;;;;;;4.23;54.05;100414.41;10426594;28;20099;-69
2023/04/06 05:35:02;;;;;;;9.70;8.23;;;;;;;4.17;54.42;100405.03;10430000;28;20164;-69
2023/04/06 05:40:04;;;;;;;9.85;8.57;;;;;;;4.22;54.57;100421.47;10425749;28;20045;-70
2023/04/06 05:45:06;;;;;;;11.88;9.43;;;;;;;4.08;54.35;100426.56;10430854;28;20198;-67
2023/04/06 05:50:08;;;;;;;11.52;10.43;;;;;;;3.99;54.81;100414.72;10427261;28;20613;-69
2023/04/06 05:55:10;;;;;;;11.07;9.65;;;;;;;4.13;54.71;100432.47;10428226;28;20049;-70
2023/04/06 06:00:12;;;;;;;14.18;9.20;;;;;;;4.31;54.28;100440.34;10431085;28;20535;-69
2023/04/06 06:05:14;;;;;;;13.07;9.20;;;;;;;4.33;54.18;100438.53;10430454;28;20504;-68
2023/04/06 06:10:15;;;;;;;9.40;8.40;;;;;;;4.39;54.05;100440.84;10423881;28;20059;-70
2023/04/06 06:15:17;;;;;;;10.98;8.88;;;;;;;4.44;54.35;100441.44;10439239;28;20055;-69
2023/04/06 06:20:18;;;;;;;11.60;8.75;;;;;;;4.58;54.13;100433.66;10427310;28;20442;-69
2023/04/06 06:25:21;;;;;;;14.38;9.68;;;;;;;4.75;53.61;100431.91;10422546;28;20114;-68
2023/04/06 06:30:22;;;;;;;11.48;9.57;;;;;;;4.95;53.62;100444.03;10433452;28;20056;-65
2023/04/06 06:35:24;;;;;;;15.00;9.10;;;;;;;5.06;52.89;100444.31;10434317;28;20056;-69
2023/04/06 06:40:26;;;;;;;14.82;9.07;;;;;;;5.24;52.61;100442.44;10430491;28;20060;-68
2023/04/06 06:45:29;;;;;;;11.70;8.88;;;;;;;5.42;52.44;100451.13;10433911;28;20041;-66
2023/04/06 06:50:31;;;;;;;12.82;10.30;;;;;;;5.63;51.95;100445.56;10439364;28;20151;-70
2023/04/06 06:55:32;;;;;;;12.20;9.18;;;;;;;5.74;51.31;100443.19;10445851;28;20059;-68
2023/04/06 07:00:34;;;;;;;11.60;9.05;;;;;;;5.96;50.79;100442.78;10446571;28;20329;-66
2023/04/06 07:05:35;;;;;;;10.38;8.35;;;;;;;6.13;50.24;100446.28;10442476;28;20055;-68
2023/04/06 07:10:39;;;;;;;12.13;9.77;;;;;;;6.29;49.51;100439.13;10430316;28;20056;-67
2023/04/06 07:15:41;;;;;;;10.98;9.85;;;;;;;6.40;49.08;100419.16;10430697;28;20049;-69
2023/04/06 07:20:43;;;;;;;13.68;9.50;;;;;;;6.66;48.67;100436.91;10430772;28;20040;-67
2023/04/06 07:25:45;;;;;;;9.43;8.45;;;;;;;6.84;47.45;100436.72;10429428;28;20772;-68
2023/04/06 07:30:47;;;;;;;11.63;9.85;;;;;;;7.00;47.00;100439.28;10429982;28;20160;-66
2023/04/06 07:35:48;;;;;;;10.85;9.75;;;;;;;7.20;46.83;100438.84;10429632;28;20048;-69
2023/04/06 07:40:50;;;;;;;14.57;9.82;;;;;;;7.42;45.97;100443.63;10438614;28;20444;-72
2023/04/06 07:45:51;;;;;;;11.68;10.40;;;;;;;7.49;43.92;100441.44;10439575;28;20110;-70
2023/04/06 07:51:01;;;;;;;11.80;10.35;;;;;;;7.64;43.86;100439.59;10433068;28;20056;-69
2023/04/06 07:56:04;;;;;;;12.63;10.93;;;;;;;7.78;43.41;100441.34;10432088;28;20144;-66
2023/04/06 08:01:06;;;;;;;11.20;9.60;;;;;;;7.93;43.17;100432.38;10430042;28;20040;-68
2023/04/06 08:06:08;;;;;;;11.65;9.80;;;;;;;8.04;42.75;100430.81;10426242;28;20057;-68
2023/04/06 08:11:09;;;;;;;10.77;9.77;;;;;;;8.28;42.63;100428.28;10433809;28;20048;-68
2023/04/06 08:16:11;;;;;;;11.70;10.60;;;;;;;8.55;41.67;100430.03;10429207;28;20577;-66
2023/04/06 08:21:12;;;;;;;11.30;10.00;;;;;;;8.54;41.97;100428.34;10433163;28;20056;-66
2023/04/06 08:26:14;;;;;;;10.48;9.43;;;;;;;8.71;41.34;100433.34;10424793;28;20061;-67
2023/04/06 08:31:15;;;;;;;10.52;9.48;;;;;;;8.91;41.15;100425.78;10429137;28;20500;-68
2023/04/06 08:36:20;;;;;;;10.18;9.18;;;;;;;9.11;40.04;100433.19;10434307;28;20049;-64
2023/04/06 08:41:21;;;;;;;10.90;9.52;;;;;;;9.36;40.11;100431.41;10431300;28;20056;-65
2023/04/06 08:46:29;;;;;;;13.35;10.25;;;;;;;9.66;38.72;100433.59;10436929;28;20516;-66
2023/04/06 08:51:30;;;;;;;11.13;9.95;;;;;;;9.70;38.97;100429.78;10428544;28;20045;-70
2023/04/06 08:56:33;;;;;;;11.18;10.15;;;;;;;10.06;38.10;100424.47;10424915;28;20051;-68
2023/04/06 09:01:41;;;;;;;10.30;9.32;;;;;;;10.29;37.62;100404.09;10428557;28;20168;-65
2023/04/06 09:06:43;;;;;;;9.15;8.13;;;;;;;10.46;37.79;100410.78;10437608;28;20055;-67
2023/04/06 09:11:48;;;;;;;9.90;8.88;;;;;;;10.78;37.23;100412.78;10428294;28;20153;-68
2023/04/06 09:16:50;;;;;;;10.10;8.82;;;;;;;11.28;36.12;100413.19;10441442;28;20434;-65
2023/04/06 09:22:02;;;;;;;12.38;9.48;;;;;;;11.67;35.64;100407.41;10429896;28;20145;-66
2023/04/06 09:27:03;;;;;;;9.35;8.35;;;;;;;12.15;34.33;100406.13;10424866;28;20211;-65
2023/04/06 09:32:06;;;;;;;11.05;8.48;;;;;;;12.29;34.27;100387.09;10433859;28;20048;-67
2023/04/06 09:37:18;;;;;;;9.02;8.13;;;;;;;12.89;34.17;100394.41;10428885;28;20268;-67
2023/04/06 09:42:25;;;;;;;9.20;8.30;;;;;;;13.21;31.89;100393.38;10431105;28;20060;-67
2023/04/06 09:47:27;;;;;;;9.00;8.07;;;;;;;13.22;32.79;100385.22;10424200;28;20049;-67
2023/04/06 09:52:38;;;;;;;9.95;8.93;;;;;;;13.42;32.85;100386.16;10424559;28;20049;-69
2023/04/06 09:57:50;;;;;;;11.27;8.75;;;;;;;13.61;32.66;100390.66;10429138;28;20093;-64
2023/04/06 10:03:12;;;;;;;10.27;8.35;;;;;;;13.94;32.04;100385.03;10434348;28;20436;-67
2023/04/06 10:08:16;;;;;;;11.27;8.43;;;;;;;14.47;31.03;100381.84;10428562;28;20064;-67
2023/04/06 10:13:19;;;;;;;9.40;8.45;;;;;;;15.05;29.89;100376.41;10437194;28;20103;-66
2023/04/06 10:18:21;;;;;;;10.05;8.25;;;;;;;16.24;29.52;100352.88;10435790;28;20132;-67
2023/04/06 10:23:37;;;;;;;11.25;8.57;;;;;;;19.23;24.81;100365.34;10438657;28;20054;-67
2023/04/06 10:28:41;;;;;;;9.23;7.95;;;;;;;20.42;23.02;100366.78;10448982;28;20445;-66
2023/04/06 10:34:00;;;;;;;10.20;7.97;;;;;;;20.68;22.58;100357.41;10436857;28;20133;-69
2023/04/06 10:39:04;;;;;;;9.95;7.90;;;;;;;19.37;23.93;100355.66;10440557;28;20104;-67
2023/04/06 10:44:06;;;;;;;10.35;8.07;;;;;;;19.15;23.79;100359.16;10465375;28;20120;-68
2023/04/06 10:49:14;;;;;;;8.88;7.97;;;;;;;20.59;22.01;100346.63;10445583;28;20053;-69
2023/04/06 10:54:16;;;;;;;8.95;7.18;;;;;;;25.04;19.18;100335.66;10442900;28;20185;-66
2023/04/06 10:59:20;;;;;;;8.68;7.25;;;;;;;26.79;16.27;100338.66;10441876;28;20142;-70
2023/04/06 11:04:23;;;;;;;8.70;7.47;;;;;;;26.67;16.42;100331.47;10445799;28;20049;-70
2023/04/06 11:09:25;;;;;;;11.80;7.60;;;;;;;27.64;15.53;100319.66;10443461;28;20069;-71
2023/04/06 11:14:27;;;;;;;;;;;;;;;26.57;15.09;100323.78;10449625;28;20057;-70
2023/04/06 11:19:29;;;;;;;8.77;7.90;;;;;;;27.72;15.48;100316.56;10456448;28;19921;-67
2023/04/06 11:24:31;;;;;;;9.07;7.65;;;;;;;29.12;14.76;100320.47;10448618;28;20123;-71
2023/04/06 11:29:35;;;;;;;8.52;7.45;;;;;;;30.92;14.05;100302.13;10436855;28;20575;-66
2023/04/06 11:34:39;;;;;;;9.35;8.20;;;;;;;31.19;12.81;100295.84;10436142;28;20076;-67
2023/04/06 11:39:49;;;;;;;10.82;9.13;;;;;;;31.12;12.53;100286.97;10431289;28;20094;-67
2023/04/06 11:44:53;;;;;;;9.77;8.77;;;;;;;27.17;15.27;100282.06;10433802;28;20140;-67
2023/04/06 11:49:55;;;;;;;8.90;7.97;;;;;;;26.43;16.19;100282.97;10433404;28;20071;-69
2023/04/06 11:55:09;;;;;;;16.50;9.45;;;;;;;25.81;15.99;100279.41;10428469;28;20217;-69
2023/04/06 12:00:11;;;;;;;14.85;9.23;;;;;;;25.12;16.81;100271.09;10432886;28;20045;-66
2023/04/06 12:05:14;;;;;;;24.70;10.48;;;;;;;23.84;17.15;100265.22;10437319;28;20140;-69
2023/04/06 12:10:15;;;;;;;9.60;8.60;;;;;;;23.20;17.52;100270.19;10437408;28;20059;-67
2023/04/06 12:15:17;;;;;;;9.52;8.35;;;;;;;21.59;19.17;100268.50;10439043;28;20314;-66
2023/04/06 12:20:18;;;;;;;9.98;8.13;;;;;;;21.56;19.72;100268.03;10436519;28;20044;-66
2023/04/06 12:25:27;;;;;;;10.05;8.30;;;;;;;20.46;20.54;100262.63;10429319;28;20076;-69
2023/04/06 12:30:30;;;;;;;9.00;8.10;;;;;;;21.32;19.63;100260.09;10428892;28;20060;-69
2023/04/06 12:35:35;;;;;;;8.23;7.43;;;;;;;23.35;17.36;100252.91;10425770;28;20059;-68
2023/04/06 12:40:38;;;;;;;9.63;8.55;;;;;;;22.50;17.80;100247.84;10424779;28;20080;-67
2023/04/06 12:45:40;;;;;;;8.73;7.82;;;;;;;22.13;17.92;100248.03;10423162;28;20155;-69
2023/04/06 12:50:41;;;;;;;8.73;7.40;;;;;;;22.30;17.98;100243.13;10432020;28;20059;-68
2023/04/06 12:55:43;;;;;;;8.27;6.93;;;;;;;22.65;18.13;100237.66;10431299;28;20107;-68
2023/04/06 13:00:45;;;;;;;7.93;7.13;;;;;;;21.22;19.39;100229.00;10428686;28;20252;-68
2023/04/06 13:05:47;;;;;;;7.63;6.93;;;;;;;20.26;20.52;100232.66;10425795;28;20271;-68
2023/04/06 13:10:50;;;;;;;7.78;6.88;;;;;;;20.12;20.50;100228.94;10427220;28;20056;-70
2023/04/06 13:15:53;;;;;;;8.63;7.50;;;;;;;20.05;20.90;100220.72;10428530;28;20325;-68
2023/04/06 13:20:56;;;;;;;7.82;7.13;;;;;;;19.72;19.73;100222.91;10426232;28;20064;-68
2023/04/06 13:26:05;;;;;;;8.40;7.40;;;;;;;19.25;20.30;100232.94;10427645;28;20051;-68
2023/04/06 13:31:07;;;;;;;8.57;7.28;;;;;;;18.80;21.13;100219.22;10429355;28;20553;-68
2023/04/06 13:36:08;;;;;;;9.57;7.90;;;;;;;18.75;21.31;100210.00;10433901;28;20654;-69
2023/04/06 13:41:10;;;;;;;7.53;6.57;;;;;;;18.72;21.63;100216.59;10440314;28;20576;-68
2023/04/06 13:46:12;;;;;;;7.70;6.85;;;;;;;18.45;21.79;100204.44;10436070;28;20080;-65
2023/04/06 13:51:14;;;;;;;7.10;6.20;;;;;;;18.52;21.73;100208.09;10440553;28;20051;-66
2023/04/06 13:56:16;;;;;;;8.85;7.10;;;;;;;18.65;22.18;100205.66;10442033;28;20056;-68
2023/04/06 14:01:18;;;;;;;7.55;6.75;;;;;;;18.72;22.17;100197.72;10446168;28;20048;-68
2023/04/06 14:06:19;;;;;;;9.07;7.13;;;;;;;18.36;22.76;100196.41;10436937;28;20504;-66
2023/04/06 14:11:32;;;;;;;10.65;9.00;;;;;;;17.87;22.79;100191.16;10439933;28;20340;-68
2023/04/06 14:16:33;;;;;;;6.22;5.65;;;;;;;17.97;23.24;100194.53;10432322;28;20474;-67
2023/04/06 14:21:35;;;;;;;7.80;7.00;;;;;;;17.42;23.66;100193.44;10436365;28;20273;-71
2023/04/06 14:26:37;;;;;;;7.55;6.78;;;;;;;17.44;23.95;100201.34;10434380;28;20053;-69
2023/04/06 14:31:38;;;;;;;7.57;6.55;;;;;;;17.07;24.10;100183.84;10442879;28;20460;-67
2023/04/06 14:36:40;;;;;;;8.40;6.57;;;;;;;16.83;24.75;100196.25;10439951;28;20050;-64
2023/04/06 14:41:41;;;;;;;8.15;6.22;;;;;;;16.55;24.60;100196.50;10437196;28;20566;-70
2023/04/06 14:46:43;;;;;;;7.97;7.18;;;;;;;16.48;24.91;100190.09;10437933;28;20470;-69
2023/04/06 14:51:44;;;;;;;7.50;6.70;;;;;;;16.49;25.09;100185.59;10437805;28;20044;-67
2023/04/06 14:56:46;;;;;;;7.82;7.03;;;;;;;16.32;25.30;100182.00;10442068;28;20067;-68
2023/04/06 15:01:47;;;;;;;7.63;5.90;;;;;;;16.21;25.47;100178.63;10436908;28;20352;-68
2023/04/06 15:06:49;;;;;;;8.25;6.93;;;;;;;15.91;25.75;100182.66;10435289;28;20053;-66
2023/04/06 15:11:50;;;;;;;8.07;6.45;;;;;;;15.85;25.88;100176.13;10442556;28;20083;-68
2023/04/06 15:16:52;;;;;;;8.73;6.97;;;;;;;15.76;25.83;100178.88;10433763;28;20068;-66
2023/04/06 15:21:53;;;;;;;7.72;6.47;;;;;;;15.60;26.06;100169.72;10435109;28;20159;-68
2023/04/06 15:26:55;;;;;;;6.65;5.95;;;;;;;15.36;26.33;100178.47;10437250;28;20037;-70
2023/04/06 15:31:57;;;;;;;8.73;7.03;;;;;;;15.23;26.54;100161.94;10431294;28;20060;-66
2023/04/06 15:37:01;;;;;;;9.05;6.75;;;;;;;15.18;26.24;100176.63;10429188;28;20099;-67
2023/04/06 15:42:03;;;;;;;6.93;6.30;;;;;;;15.23;26.38;100167.28;10429603;28;20136;-69
2023/04/06 15:47:04;;;;;;;9.27;6.78;;;;;;;15.16;26.62;100159.88;10432202;28;20055;-68
2023/04/06 15:52:06;;;;;;;8.82;6.85;;;;;;;14.97;26.37;100163.56;10437567;28;20048;-66
2023/04/06 15:57:08;;;;;;;6.75;6.10;;;;;;;14.85;26.81;100160.28;10429047;28;20049;-65
2023/04/06 16:02:09;;;;;;;6.93;6.30;;;;;;;14.79;26.85;100166.25;10432545;28;20121;-66
2023/04/06 16:07:11;;;;;;;7.57;6.60;;;;;;;14.82;27.23;100178.50;10431348;28;20053;-66
2023/04/06 16:12:12;;;;;;;6.60;6.00;;;;;;;14.65;27.54;100166.78;10430878;28;20582;-66
2023/04/06 16:17:14;;;;;;;7.30;6.53;;;;;;;14.62;27.08;100167.94;10433333;28;20536;-70
2023/04/06 16:22:16;;;;;;;5.70;5.20;;;;;;;14.55;27.24;100166.00;10451157;28;20944;-67
2023/04/06 16:27:17;;;;;;;5.88;5.28;;;;;;;13.98;27.84;100140.25;10433137;28;20486;-68
2023/04/06 16:32:18;;;;;;;7.55;4.63;;;;;;;14.03;28.57;100186.13;10435249;28;20051;-67
2023/04/06 16:37:20;;;;;;;5.10;4.15;;;;;;;13.95;29.21;100189.53;10434221;28;20264;-65
2023/04/06 16:42:22;;;;;;;4.85;4.35;;;;;;;13.84;29.67;100191.53;10433816;28;20049;-68
2023/04/06 16:47:23;;;;;;;5.90;4.45;;;;;;;13.75;29.83;100186.09;10431714;28;20427;-65
2023/04/06 16:52:25;;;;;;;5.55;4.95;;;;;;;13.68;30.00;100185.00;10429515;28;20404;-66
2023/04/06 16:57:28;;;;;;;5.03;4.53;;;;;;;13.67;29.56;100185.13;10434969;28;20049;-64
2023/04/06 17:02:31;;;;;;;6.18;4.53;;;;;;;13.59;29.84;100167.16;10430893;28;20041;-65
2023/04/06 17:07:34;;;;;;;6.80;5.15;;;;;;;13.62;30.32;100174.88;10433085;28;20052;-68
2023/04/06 17:12:35;;;;;;;5.95;4.20;;;;;;;13.59;29.92;100184.03;10435033;28;20578;-65
2023/04/06 17:17:37;;;;;;;5.38;4.18;;;;;;;13.53;30.52;100170.41;10430713;28;20332;-65
2023/04/06 17:22:39;;;;;;;5.82;4.90;;;;;;;13.41;31.03;100173.22;10432218;28;20150;-68
2023/04/06 17:27:41;;;;;;;5.43;4.68;;;;;;;13.43;31.53;100173.09;10477205;28;20538;-70
2023/04/06 17:32:44;;;;;;;4.82;4.25;;;;;;;13.38;31.50;100178.03;10471096;28;20083;-64
2023/04/06 17:37:46;;;;;;;6.50;4.70;;;;;;;13.18;32.16;100190.53;10432185;28;20044;-69
2023/04/06 17:42:48;;;;;;;4.63;4.13;;;;;;;12.98;32.42;100201.22;10451819;28;20114;-67
2023/04/06 17:47:49;;;;;;;5.40;3.58;;;;;;;12.97;33.13;100196.88;10450195;28;20072;-66
2023/04/06 17:52:52;;;;;;;5.40;3.38;;;;;;;12.95;33.06;100204.19;10442403;28;20048;-68
2023/04/06 17:57:53;;;;;;;5.03;3.15;;;;;;;12.93;33.31;100210.66;10440669;28;21024;-70
2023/04/06 18:02:56;;;;;;;3.53;2.83;;;;;;;12.77;34.59;100219.22;10446237;28;20333;-68
2023/04/06 18:07:58;;;;;;;3.55;2.58;;;;;;;12.70;34.97;100235.78;10448365;28;20079;-68
2023/04/06 18:13:00;;;;;;;3.00;2.70;;;;;;;12.65;35.34;100235.34;10432422;28;20048;-65
2023/04/06 18:18:01;;;;;;;3.50;2.70;;;;;;;12.61;36.00;100238.44;10428951;28;20120;-68
2023/04/06 18:23:03;;;;;;;4.60;3.58;;;;;;;12.44;36.96;100243.44;10437742;28;20905;-68
2023/04/06 18:28:05;;;;;;;4.00;2.58;;;;;;;12.46;37.19;100248.66;10437157;28;20134;-67
2023/04/06 18:33:07;;;;;;;3.65;3.22;;;;;;;12.47;37.94;100245.00;10466305;28;20094;-67
2023/04/06 18:38:08;;;;;;;4.82;3.88;;;;;;;12.46;38.62;100265.53;10478111;28;20072;-67
2023/04/06 18:43:10;;;;;;;4.95;3.85;;;;;;;12.22;40.40;100257.84;10482039;28;20094;-71
2023/04/06 18:48:12;;;;;;;4.55;4.00;;;;;;;12.17;41.36;100260.94;10482438;28;20048;-62
2023/04/06 18:53:13;;;;;;;4.53;3.95;;;;;;;12.19;42.02;100264.31;10469111;28;20071;-64
2023/04/06 18:58:15;;;;;;;5.13;4.57;;;;;;;11.99;43.63;100274.03;10475088;28;20098;-68
2023/04/06 19:03:16;;;;;;;5.47;4.80;;;;;;;11.77;46.11;100284.78;10480938;28;20032;-66
2023/04/06 19:08:21;;;;;;;4.72;4.28;;;;;;;11.71;46.77;100286.19;10490599;28;20458;-71
2023/04/06 19:13:24;;;;;;;5.88;5.28;;;;;;;11.65;48.74;100298.22;10467644;28;20049;-66
2023/04/06 19:18:26;;;;;;;4.55;3.67;;;;;;;11.66;50.13;100304.38;10452861;28;20064;-65
2023/04/06 19:23:27;;;;;;;4.60;4.20;;;;;;;11.64;50.71;100299.19;10458172;28;20520;-63
2023/04/06 19:28:29;;;;;;;6.13;4.85;;;;;;;11.57;51.77;100298.00;10450596;28;20268;-67
2023/04/06 19:33:30;;;;;;;4.63;4.05;;;;;;;11.49;52.68;100297.81;10450690;28;20584;-68
2023/04/06 19:38:32;;;;;;;4.53;4.13;;;;;;;11.59;54.38;100306.72;10443083;28;20068;-66
2023/04/06 19:43:34;;;;;;;4.38;3.97;;;;;;;11.54;55.11;100300.09;10442731;28;20113;-68
2023/04/06 19:48:35;;;;;;;6.18;4.05;;;;;;;11.43;56.67;100304.50;10442949;28;20055;-65
2023/04/06 19:53:37;;;;;;;4.75;4.15;;;;;;;11.39;57.89;100299.53;10439474;28;20059;-63
2023/04/06 19:58:39;;;;;;;6.95;6.30;;;;;;;11.24;58.39;100305.16;10439289;28;20072;-67
2023/04/06 20:03:40;;;;;;;6.13;5.53;;;;;;;11.10;60.84;100303.63;10442615;28;20048;-66
2023/04/06 20:08:43;;;;;;;6.18;5.15;;;;;;;11.05;61.52;100305.84;10451959;28;20056;-66
2023/04/06 20:13:45;;;;;;;5.45;4.60;;;;;;;11.06;62.90;100312.84;10442259;28;20048;-68
2023/04/06 20:18:47;;;;;;;5.97;5.38;;;;;;;11.00;63.00;100312.50;10439886;28;20114;-66
2023/04/06 20:23:48;;;;;;;5.65;4.80;;;;;;;10.90;63.76;100307.94;10434094;28;20131;-67
2023/04/06 20:28:49;;;;;;;7.00;5.15;;;;;;;10.76;64.15;100311.72;10439465;28;20040;-66
2023/04/06 20:33:51;;;;;;;6.25;5.30;;;;;;;10.77;65.20;100307.22;10438733;28;20045;-69
2023/04/06 20:38:53;;;;;;;6.47;5.97;;;;;;;10.65;66.51;100306.41;10439170;28;20730;-67
2023/04/06 20:43:55;;;;;;;5.40;5.00;;;;;;;10.49;66.69;100301.44;10433754;28;20052;-67
2023/04/06 20:48:56;;;;;;;5.97;5.38;;;;;;;10.50;67.99;100305.81;10438120;28;20048;-66
2023/04/06 20:53:59;;;;;;;6.00;5.47;;;;;;;10.40;67.88;100304.84;10445111;28;20535;-70
2023/04/06 20:59:03;;;;;;;6.00;5.40;;;;;;;10.39;67.98;100305.81;10439877;28;20048;-66
2023/04/06 21:04:05;;;;;;;6.30;5.70;;;;;;;10.33;68.81;100303.59;10436037;28;20646;-68
2023/04/06 21:09:06;;;;;;;7.25;6.55;;;;;;;10.29;69.97;100312.81;10436125;28;20052;-68
2023/04/06 21:14:08;;;;;;;7.45;6.82;;;;;;;10.22;70.71;100301.78;10438553;28;20051;-64
2023/04/06 21:19:09;;;;;;;7.22;6.60;;;;;;;10.16;69.94;100287.13;10436875;28;20518;-69
2023/04/06 21:24:11;;;;;;;7.47;6.78;;;;;;;10.18;70.61;100279.06;10432298;28;20136;-66
2023/04/06 21:29:12;;;;;;;8.77;6.93;;;;;;;10.11;71.42;100284.00;10435639;28;20275;-67
2023/04/06 21:34:14;;;;;;;7.55;6.85;;;;;;;9.96;71.77;100282.53;10435447;28;20158;-69
2023/04/06 21:39:15;;;;;;;8.10;7.40;;;;;;;9.89;71.48;100275.03;10431371;28;20063;-68
2023/04/06 21:44:17;;;;;;;9.15;8.05;;;;;;;9.83;71.93;100274.66;10433150;28;20115;-67
2023/04/06 21:49:19;;;;;;;9.85;8.85;;;;;;;9.87;72.50;100273.47;10432998;28;20063;-67
2023/04/06 21:54:20;;;;;;;9.77;8.90;;;;;;;9.69;73.10;100268.59;10450224;28;20141;-69
2023/04/06 21:59:22;;;;;;;10.45;9.15;;;;;;;9.68;73.24;100266.03;10448883;28;20163;-66
2023/04/06 22:04:24;;;;;;;13.43;9.75;;;;;;;9.63;73.39;100252.28;10444800;28;20492;-69
2023/04/06 22:09:26;;;;;;;10.15;9.13;;;;;;;9.70;74.32;100264.13;10441403;28;20265;-69
2023/04/06 22:14:27;;;;;;;11.57;10.15;;;;;;;9.70;73.96;100253.50;10443772;28;20264;-66
2023/04/06 22:19:31;;;;;;;11.82;10.63;;;;;;;9.70;73.71;100245.53;10441583;28;20072;-67
2023/04/06 22:24:33;;;;;;;11.23;10.23;;;;;;;9.70;74.02;100242.88;10439725;28;20147;-68
2023/04/06 22:29:34;;;;;;;10.73;9.73;;;;;;;9.66;74.00;100233.44;10445148;28;20136;-66
2023/04/06 22:34:36;;;;;;;12.85;11.35;;;;;;;9.61;74.08;100248.88;10443378;28;20057;-67
2023/04/06 22:39:37;;;;;;;13.27;11.32;;;;;;;9.49;75.10;100235.56;10456596;28;20051;-70
2023/04/06 22:44:39;;;;;;;12.15;11.00;;;;;;;9.60;75.28;100231.25;10455605;28;20139;-70
2023/04/06 22:49:40;;;;;;;12.00;10.85;;;;;;;9.61;74.85;100227.59;10437668;28;20059;-66
2023/04/06 22:54:42;;;;;;;14.05;11.57;;;;;;;9.51;76.18;100220.34;10444089;28;20055;-66
2023/04/06 22:59:43;;;;;;;11.98;10.80;;;;;;;9.50;75.62;100208.03;10438569;28;20076;-67
2023/04/06 23:04:45;;;;;;;12.55;11.32;;;;;;;9.50;75.45;100209.84;10441215;28;20102;-66
2023/04/06 23:09:46;;;;;;;11.05;9.95;;;;;;;9.50;75.16;100205.38;10445125;28;20238;-67
2023/04/06 23:14:48;;;;;;;12.57;11.35;;;;;;;9.47;76.73;100202.97;10439716;28;20117;-66